sensor_id;sensor_type;location;lat;lon;timestamp;P1;durP1;ratioP1;P2;durP2;ratioP2
52294;SDS011;38243;53.212;6.574;2022-12-18T00:01:31;11.40;;;9.43;;
52294;SDS011;38243;53.212;6.574;2022-12-18T00:03:58;11.88;;;9.20;;
52294;SDS011;38243;53.212;6.574;2022-12-18T00:06:26;13.18;;;10.70;;
52294;SDS011;38243;53.212;6.574;2022-12-18T00:08:54;12.00;;;9.57;;
52294;SDS011;38243;53.212;6.574;2022-12-18T00:11:22;12.27;;;9.27;;
52294;SDS011;38243;53.212;6.574;2022-12-18T00:13:50;13.75;;;10.45;;
52294;SDS011;38243;53.212;6.574;2022-12-18T00:16:20;13.80;;;10.10;;
52294;SDS011;38243;53.212;6.574;2022-12-18T00:18:47;11.13;;;8.80;;
52294;SDS011;38243;53.212;6.574;2022-12-18T00:21:15;11.80;;;9.50;;
52294;SDS011;38243;53.212;6.574;2022-12-18T00:23:41;12.07;;;9.35;;
52294;SDS011;38243;53.212;6.574;2022-12-18T00:26:12;13.38;;;8.88;;
52294;SDS011;38243;53.212;6.574;2022-12-18T00:28:40;12.32;;;9.32;;
52294;SDS011;38243;53.212;6.574;2022-12-18T00:31:07;15.05;;;9.00;;
52294;SDS011;38243;53.212;6.574;2022-12-18T00:33:34;12.30;;;9.77;;
52294;SDS011;38243;53.212;6.574;2022-12-18T00:36:02;12.73;;;8.52;;
52294;SDS011;38243;53.212;6.574;2022-12-18T00:38:27;13.23;;;9.85;;
52294;SDS011;38243;53.212;6.574;2022-12-18T00:40:53;11.68;;;8.35;;
52294;SDS011;38243;53.212;6.574;2022-12-18T00:43:19;12.45;;;9.70;;
52294;SDS011;38243;53.212;6.574;2022-12-18T00:45:45;12.27;;;9.65;;
52294;SDS011;38243;53.212;6.574;2022-12-18T00:48:11;11.50;;;9.00;;
52294;SDS011;38243;53.212;6.574;2022-12-18T00:50:36;12.65;;;9.95;;
52294;SDS011;38243;53.212;6.574;2022-12-18T00:53:03;14.38;;;10.48;;
52294;SDS011;38243;53.212;6.574;2022-12-18T00:55:29;12.15;;;9.10;;
52294;SDS011;38243;53.212;6.574;2022-12-18T00:57:54;11.70;;;9.50;;
52294;SDS011;38243;53.212;6.574;2022-12-18T01:00:20;12.20;;;9.93;;
52294;SDS011;38243;53.212;6.574;2022-12-18T01:02:46;9.95;;;8.60;;
52294;SDS011;38243;53.212;6.574;2022-12-18T01:05:12;11.57;;;9.40;;
52294;SDS011;38243;53.212;6.574;2022-12-18T01:07:38;13.63;;;10.35;;
52294;SDS011;38243;53.212;6.574;2022-12-18T01:10:04;11.68;;;9.48;;
52294;SDS011;38243;53.212;6.574;2022-12-18T01:12:32;13.27;;;9.38;;
52294;SDS011;38243;53.212;6.574;2022-12-18T01:14:58;12.27;;;9.13;;
52294;SDS011;38243;53.212;6.574;2022-12-18T01:17:24;11.82;;;9.57;;
52294;SDS011;38243;53.212;6.574;2022-12-18T01:19:50;10.73;;;8.50;;
52294;SDS011;38243;53.212;6.574;2022-12-18T01:22:15;10.63;;;8.87;;
52294;SDS011;38243;53.212;6.574;2022-12-18T01:24:41;11.30;;;9.07;;
52294;SDS011;38243;53.212;6.574;2022-12-18T01:27:07;11.13;;;9.33;;
52294;SDS011;38243;53.212;6.574;2022-12-18T01:29:33;13.20;;;9.23;;
52294;SDS011;38243;53.212;6.574;2022-12-18T01:31:58;10.73;;;8.80;;
52294;SDS011;38243;53.212;6.574;2022-12-18T01:34:24;13.85;;;9.90;;
52294;SDS011;38243;53.212;6.574;2022-12-18T01:36:50;11.38;;;9.30;;
52294;SDS011;38243;53.212;6.574;2022-12-18T01:39:17;12.15;;;9.65;;
52294;SDS011;38243;53.212;6.574;2022-12-18T01:41:43;10.90;;;8.98;;
52294;SDS011;38243;53.212;6.574;2022-12-18T01:52:42;11.77;;;9.40;;
52294;SDS011;38243;53.212;6.574;2022-12-18T01:55:11;11.23;;;8.77;;
52294;SDS011;38243;53.212;6.574;2022-12-18T01:57:40;11.60;;;9.00;;
52294;SDS011;38243;53.212;6.574;2022-12-18T02:00:11;11.02;;;8.63;;
52294;SDS011;38243;53.212;6.574;2022-12-18T02:02:43;11.48;;;8.95;;
52294;SDS011;38243;53.212;6.574;2022-12-18T02:05:10;10.60;;;8.52;;
52294;SDS011;38243;53.212;6.574;2022-12-18T02:07:42;10.48;;;8.60;;
52294;SDS011;38243;53.212;6.574;2022-12-18T02:10:23;11.13;;;8.73;;
52294;SDS011;38243;53.212;6.574;2022-12-18T02:12:56;11.43;;;9.20;;
52294;SDS011;38243;53.212;6.574;2022-12-18T02:15:39;10.80;;;8.63;;
52294;SDS011;38243;53.212;6.574;2022-12-18T02:18:34;12.02;;;9.25;;
52294;SDS011;38243;53.212;6.574;2022-12-18T02:21:17;11.30;;;8.57;;
52294;SDS011;38243;53.212;6.574;2022-12-18T02:26:50;10.90;;;8.55;;
52294;SDS011;38243;53.212;6.574;2022-12-18T02:29:22;11.60;;;8.90;;
52294;SDS011;38243;53.212;6.574;2022-12-18T02:31:54;11.23;;;8.95;;
52294;SDS011;38243;53.212;6.574;2022-12-18T02:34:26;11.87;;;9.67;;
52294;SDS011;38243;53.212;6.574;2022-12-18T02:36:54;12.73;;;10.02;;
52294;SDS011;38243;53.212;6.574;2022-12-18T02:39:22;12.80;;;9.70;;
52294;SDS011;38243;53.212;6.574;2022-12-18T02:41:52;11.65;;;9.13;;
52294;SDS011;38243;53.212;6.574;2022-12-18T02:44:18;12.98;;;9.80;;
52294;SDS011;38243;53.212;6.574;2022-12-18T02:46:48;13.73;;;10.40;;
52294;SDS011;38243;53.212;6.574;2022-12-18T02:49:36;12.75;;;9.48;;
52294;SDS011;38243;53.212;6.574;2022-12-18T03:00:22;12.23;;;9.30;;
52294;SDS011;38243;53.212;6.574;2022-12-18T03:03:06;12.63;;;10.02;;
52294;SDS011;38243;53.212;6.574;2022-12-18T03:05:40;11.77;;;9.70;;
52294;SDS011;38243;53.212;6.574;2022-12-18T03:08:17;13.77;;;10.80;;
52294;SDS011;38243;53.212;6.574;2022-12-18T03:10:49;11.57;;;9.30;;
52294;SDS011;38243;53.212;6.574;2022-12-18T03:13:35;12.02;;;9.70;;
52294;SDS011;38243;53.212;6.574;2022-12-18T03:16:09;13.02;;;10.15;;
52294;SDS011;38243;53.212;6.574;2022-12-18T03:18:49;13.68;;;10.32;;
52294;SDS011;38243;53.212;6.574;2022-12-18T03:21:21;11.93;;;9.65;;
52294;SDS011;38243;53.212;6.574;2022-12-18T03:23:51;14.07;;;9.65;;
52294;SDS011;38243;53.212;6.574;2022-12-18T03:26:22;13.97;;;10.00;;
52294;SDS011;38243;53.212;6.574;2022-12-18T03:28:51;14.73;;;10.48;;
52294;SDS011;38243;53.212;6.574;2022-12-18T03:31:23;13.10;;;9.82;;
52294;SDS011;38243;53.212;6.574;2022-12-18T03:33:52;16.27;;;11.40;;
52294;SDS011;38243;53.212;6.574;2022-12-18T03:36:18;13.05;;;10.18;;
52294;SDS011;38243;53.212;6.574;2022-12-18T03:38:44;16.23;;;11.20;;
52294;SDS011;38243;53.212;6.574;2022-12-18T03:41:18;14.90;;;10.45;;
52294;SDS011;38243;53.212;6.574;2022-12-18T03:43:58;14.88;;;11.50;;
52294;SDS011;38243;53.212;6.574;2022-12-18T03:46:41;12.70;;;9.80;;
52294;SDS011;38243;53.212;6.574;2022-12-18T03:52:37;14.05;;;11.10;;
52294;SDS011;38243;53.212;6.574;2022-12-18T03:55:07;14.68;;;11.23;;
52294;SDS011;38243;53.212;6.574;2022-12-18T03:57:36;15.35;;;10.65;;
52294;SDS011;38243;53.212;6.574;2022-12-18T04:00:05;14.13;;;10.57;;
52294;SDS011;38243;53.212;6.574;2022-12-18T04:02:34;12.70;;;9.70;;
52294;SDS011;38243;53.212;6.574;2022-12-18T04:05:01;12.43;;;9.98;;
52294;SDS011;38243;53.212;6.574;2022-12-18T04:07:29;14.45;;;10.88;;
52294;SDS011;38243;53.212;6.574;2022-12-18T04:09:56;14.05;;;10.73;;
52294;SDS011;38243;53.212;6.574;2022-12-18T04:12:28;13.73;;;10.63;;
52294;SDS011;38243;53.212;6.574;2022-12-18T04:14:54;13.45;;;9.82;;
52294;SDS011;38243;53.212;6.574;2022-12-18T04:17:20;16.02;;;11.88;;
52294;SDS011;38243;53.212;6.574;2022-12-18T04:19:46;13.48;;;10.73;;
52294;SDS011;38243;53.212;6.574;2022-12-18T04:22:12;13.40;;;10.15;;
52294;SDS011;38243;53.212;6.574;2022-12-18T04:24:38;14.67;;;11.17;;
52294;SDS011;38243;53.212;6.574;2022-12-18T04:27:03;14.70;;;11.38;;
52294;SDS011;38243;53.212;6.574;2022-12-18T04:29:29;14.43;;;10.77;;
52294;SDS011;38243;53.212;6.574;2022-12-18T04:31:55;13.97;;;10.73;;
52294;SDS011;38243;53.212;6.574;2022-12-18T04:34:21;13.93;;;11.15;;
52294;SDS011;38243;53.212;6.574;2022-12-18T04:36:47;13.48;;;10.23;;
52294;SDS011;38243;53.212;6.574;2022-12-18T04:39:13;13.73;;;10.50;;
52294;SDS011;38243;53.212;6.574;2022-12-18T04:41:39;14.45;;;10.80;;
52294;SDS011;38243;53.212;6.574;2022-12-18T04:44:06;14.63;;;10.93;;
52294;SDS011;38243;53.212;6.574;2022-12-18T04:46:32;16.30;;;11.80;;
52294;SDS011;38243;53.212;6.574;2022-12-18T04:48:57;14.73;;;11.05;;
52294;SDS011;38243;53.212;6.574;2022-12-18T04:51:23;14.38;;;10.80;;
52294;SDS011;38243;53.212;6.574;2022-12-18T04:53:49;16.30;;;11.80;;
52294;SDS011;38243;53.212;6.574;2022-12-18T04:56:15;15.03;;;11.13;;
52294;SDS011;38243;53.212;6.574;2022-12-18T04:58:42;15.25;;;11.27;;
52294;SDS011;38243;53.212;6.574;2022-12-18T05:01:10;14.98;;;11.13;;
52294;SDS011;38243;53.212;6.574;2022-12-18T05:03:37;15.32;;;11.55;;
52294;SDS011;38243;53.212;6.574;2022-12-18T05:06:03;16.15;;;11.68;;
52294;SDS011;38243;53.212;6.574;2022-12-18T05:08:30;14.60;;;11.15;;
52294;SDS011;38243;53.212;6.574;2022-12-18T05:11:00;14.88;;;10.77;;
52294;SDS011;38243;53.212;6.574;2022-12-18T05:13:29;16.52;;;11.27;;
52294;SDS011;38243;53.212;6.574;2022-12-18T05:15:55;15.55;;;11.60;;
52294;SDS011;38243;53.212;6.574;2022-12-18T05:18:23;14.73;;;10.82;;
52294;SDS011;38243;53.212;6.574;2022-12-18T05:20:50;16.70;;;12.20;;
52294;SDS011;38243;53.212;6.574;2022-12-18T05:23:17;16.15;;;11.63;;
52294;SDS011;38243;53.212;6.574;2022-12-18T05:25:46;17.50;;;12.05;;
52294;SDS011;38243;53.212;6.574;2022-12-18T05:28:33;16.65;;;11.95;;
52294;SDS011;38243;53.212;6.574;2022-12-18T05:31:01;16.63;;;11.90;;
52294;SDS011;38243;53.212;6.574;2022-12-18T05:33:30;15.35;;;11.20;;
52294;SDS011;38243;53.212;6.574;2022-12-18T05:35:59;16.27;;;11.73;;
52294;SDS011;38243;53.212;6.574;2022-12-18T05:38:32;18.43;;;11.23;;
52294;SDS011;38243;53.212;6.574;2022-12-18T05:40:58;15.02;;;11.10;;
52294;SDS011;38243;53.212;6.574;2022-12-18T05:43:25;16.30;;;11.90;;
52294;SDS011;38243;53.212;6.574;2022-12-18T05:45:51;16.33;;;11.73;;
52294;SDS011;38243;53.212;6.574;2022-12-18T05:48:18;17.55;;;12.15;;
52294;SDS011;38243;53.212;6.574;2022-12-18T05:50:45;16.02;;;11.05;;
52294;SDS011;38243;53.212;6.574;2022-12-18T05:53:13;17.08;;;11.75;;
52294;SDS011;38243;53.212;6.574;2022-12-18T05:55:40;16.40;;;11.45;;
52294;SDS011;38243;53.212;6.574;2022-12-18T05:58:07;17.38;;;11.30;;
52294;SDS011;38243;53.212;6.574;2022-12-18T06:00:36;16.25;;;11.98;;
52294;SDS011;38243;53.212;6.574;2022-12-18T06:03:07;15.40;;;11.20;;
52294;SDS011;38243;53.212;6.574;2022-12-18T06:05:37;16.63;;;11.45;;
52294;SDS011;38243;53.212;6.574;2022-12-18T06:08:05;15.70;;;11.02;;
52294;SDS011;38243;53.212;6.574;2022-12-18T06:10:31;18.02;;;12.30;;
52294;SDS011;38243;53.212;6.574;2022-12-18T06:12:57;15.32;;;11.30;;
52294;SDS011;38243;53.212;6.574;2022-12-18T06:15:23;16.40;;;11.27;;
52294;SDS011;38243;53.212;6.574;2022-12-18T06:17:49;16.92;;;11.80;;
52294;SDS011;38243;53.212;6.574;2022-12-18T06:20:15;16.98;;;11.68;;
52294;SDS011;38243;53.212;6.574;2022-12-18T06:22:41;17.17;;;12.10;;
52294;SDS011;38243;53.212;6.574;2022-12-18T06:25:07;16.60;;;11.53;;
52294;SDS011;38243;53.212;6.574;2022-12-18T06:27:33;16.52;;;11.35;;
52294;SDS011;38243;53.212;6.574;2022-12-18T06:29:59;15.63;;;11.07;;
52294;SDS011;38243;53.212;6.574;2022-12-18T06:32:26;15.90;;;11.10;;
52294;SDS011;38243;53.212;6.574;2022-12-18T06:34:51;16.05;;;11.32;;
52294;SDS011;38243;53.212;6.574;2022-12-18T06:37:18;16.43;;;11.67;;
52294;SDS011;38243;53.212;6.574;2022-12-18T06:39:44;16.45;;;11.35;;
52294;SDS011;38243;53.212;6.574;2022-12-18T06:42:10;17.23;;;11.33;;
52294;SDS011;38243;53.212;6.574;2022-12-18T06:44:35;17.83;;;12.10;;
52294;SDS011;38243;53.212;6.574;2022-12-18T06:47:01;15.20;;;11.00;;
52294;SDS011;38243;53.212;6.574;2022-12-18T06:49:27;17.13;;;11.47;;
52294;SDS011;38243;53.212;6.574;2022-12-18T06:51:52;17.33;;;10.85;;
52294;SDS011;38243;53.212;6.574;2022-12-18T06:54:18;16.77;;;11.17;;
52294;SDS011;38243;53.212;6.574;2022-12-18T06:56:47;16.75;;;11.60;;
52294;SDS011;38243;53.212;6.574;2022-12-18T06:59:13;17.00;;;11.73;;
52294;SDS011;38243;53.212;6.574;2022-12-18T07:01:40;16.23;;;11.07;;
52294;SDS011;38243;53.212;6.574;2022-12-18T07:04:06;15.23;;;10.85;;
52294;SDS011;38243;53.212;6.574;2022-12-18T07:06:32;16.65;;;11.32;;
52294;SDS011;38243;53.212;6.574;2022-12-18T07:08:57;17.87;;;11.20;;
52294;SDS011;38243;53.212;6.574;2022-12-18T07:11:23;15.90;;;11.05;;
52294;SDS011;38243;53.212;6.574;2022-12-18T07:13:49;15.57;;;10.60;;
52294;SDS011;38243;53.212;6.574;2022-12-18T07:16:18;18.77;;;11.00;;
52294;SDS011;38243;53.212;6.574;2022-12-18T07:18:45;15.63;;;10.50;;
52294;SDS011;38243;53.212;6.574;2022-12-18T07:21:14;13.98;;;10.73;;
52294;SDS011;38243;53.212;6.574;2022-12-18T07:23:42;16.63;;;11.13;;
52294;SDS011;38243;53.212;6.574;2022-12-18T07:26:09;14.17;;;9.97;;
52294;SDS011;38243;53.212;6.574;2022-12-18T07:28:37;18.95;;;10.73;;
52294;SDS011;38243;53.212;6.574;2022-12-18T07:31:04;15.68;;;10.23;;
52294;SDS011;38243;53.212;6.574;2022-12-18T07:33:38;15.73;;;10.15;;
52294;SDS011;38243;53.212;6.574;2022-12-18T07:36:04;15.77;;;10.25;;
52294;SDS011;38243;53.212;6.574;2022-12-18T07:38:31;15.20;;;9.88;;
52294;SDS011;38243;53.212;6.574;2022-12-18T07:41:07;16.77;;;10.48;;
52294;SDS011;38243;53.212;6.574;2022-12-18T07:43:34;13.73;;;9.57;;
52294;SDS011;38243;53.212;6.574;2022-12-18T07:46:01;15.63;;;10.35;;
52294;SDS011;38243;53.212;6.574;2022-12-18T07:48:27;14.20;;;9.88;;
52294;SDS011;38243;53.212;6.574;2022-12-18T07:50:57;13.82;;;9.50;;
52294;SDS011;38243;53.212;6.574;2022-12-18T07:53:27;13.90;;;9.70;;
52294;SDS011;38243;53.212;6.574;2022-12-18T07:55:59;12.77;;;9.88;;
52294;SDS011;38243;53.212;6.574;2022-12-18T07:58:27;15.40;;;9.48;;
52294;SDS011;38243;53.212;6.574;2022-12-18T08:00:54;15.38;;;9.43;;
52294;SDS011;38243;53.212;6.574;2022-12-18T08:03:31;14.13;;;9.32;;
52294;SDS011;38243;53.212;6.574;2022-12-18T08:06:00;12.98;;;9.18;;
52294;SDS011;38243;53.212;6.574;2022-12-18T08:08:28;11.55;;;8.85;;
52294;SDS011;38243;53.212;6.574;2022-12-18T08:10:54;13.35;;;8.88;;
52294;SDS011;38243;53.212;6.574;2022-12-18T08:13:20;13.82;;;8.93;;
52294;SDS011;38243;53.212;6.574;2022-12-18T08:15:46;12.23;;;8.48;;
52294;SDS011;38243;53.212;6.574;2022-12-18T08:18:20;14.40;;;8.50;;
52294;SDS011;38243;53.212;6.574;2022-12-18T08:20:46;21.30;;;15.70;;
52294;SDS011;38243;53.212;6.574;2022-12-18T08:23:11;21.25;;;16.27;;
52294;SDS011;38243;53.212;6.574;2022-12-18T08:25:37;22.00;;;16.73;;
52294;SDS011;38243;53.212;6.574;2022-12-18T08:28:03;24.98;;;18.75;;
52294;SDS011;38243;53.212;6.574;2022-12-18T08:30:28;24.38;;;18.80;;
52294;SDS011;38243;53.212;6.574;2022-12-18T08:32:54;24.00;;;17.57;;
52294;SDS011;38243;53.212;6.574;2022-12-18T08:35:20;27.83;;;20.65;;
52294;SDS011;38243;53.212;6.574;2022-12-18T08:37:46;26.23;;;18.27;;
52294;SDS011;38243;53.212;6.574;2022-12-18T08:40:12;25.17;;;18.10;;
52294;SDS011;38243;53.212;6.574;2022-12-18T08:42:38;25.02;;;17.05;;
52294;SDS011;38243;53.212;6.574;2022-12-18T08:45:22;24.93;;;16.13;;
52294;SDS011;38243;53.212;6.574;2022-12-18T08:47:49;21.92;;;16.10;;
52294;SDS011;38243;53.212;6.574;2022-12-18T08:50:15;23.08;;;15.50;;
52294;SDS011;38243;53.212;6.574;2022-12-18T08:52:41;20.77;;;15.60;;
52294;SDS011;38243;53.212;6.574;2022-12-18T08:55:07;20.10;;;14.47;;
52294;SDS011;38243;53.212;6.574;2022-12-18T08:57:34;19.92;;;14.25;;
52294;SDS011;38243;53.212;6.574;2022-12-18T08:59:59;19.93;;;14.50;;
52294;SDS011;38243;53.212;6.574;2022-12-18T09:02:25;18.08;;;13.57;;
52294;SDS011;38243;53.212;6.574;2022-12-18T09:04:51;18.93;;;13.70;;
52294;SDS011;38243;53.212;6.574;2022-12-18T09:07:16;17.67;;;12.95;;
52294;SDS011;38243;53.212;6.574;2022-12-18T09:09:42;18.33;;;12.77;;
52294;SDS011;38243;53.212;6.574;2022-12-18T09:12:08;17.60;;;12.50;;
52294;SDS011;38243;53.212;6.574;2022-12-18T09:14:33;16.25;;;12.38;;
52294;SDS011;38243;53.212;6.574;2022-12-18T09:16:59;18.47;;;12.93;;
52294;SDS011;38243;53.212;6.574;2022-12-18T09:19:25;17.23;;;11.88;;
52294;SDS011;38243;53.212;6.574;2022-12-18T09:21:51;16.42;;;11.88;;
52294;SDS011;38243;53.212;6.574;2022-12-18T09:24:16;16.73;;;11.93;;
52294;SDS011;38243;53.212;6.574;2022-12-18T09:26:42;14.45;;;11.25;;
52294;SDS011;38243;53.212;6.574;2022-12-18T09:29:22;13.77;;;11.18;;
52294;SDS011;38243;53.212;6.574;2022-12-18T09:31:48;13.37;;;10.70;;
52294;SDS011;38243;53.212;6.574;2022-12-18T09:34:14;14.60;;;11.13;;
52294;SDS011;38243;53.212;6.574;2022-12-18T09:36:41;13.98;;;10.32;;
52294;SDS011;38243;53.212;6.574;2022-12-18T09:39:07;14.17;;;11.03;;
52294;SDS011;38243;53.212;6.574;2022-12-18T09:49:23;12.65;;;9.88;;
52294;SDS011;38243;53.212;6.574;2022-12-18T09:51:54;11.67;;;9.30;;
52294;SDS011;38243;53.212;6.574;2022-12-18T09:54:35;12.32;;;9.55;;
52294;SDS011;38243;53.212;6.574;2022-12-18T09:57:15;12.10;;;9.50;;
52294;SDS011;38243;53.212;6.574;2022-12-18T09:59:44;10.83;;;8.63;;
52294;SDS011;38243;53.212;6.574;2022-12-18T10:02:19;12.38;;;9.07;;
52294;SDS011;38243;53.212;6.574;2022-12-18T10:05:01;10.77;;;8.65;;
52294;SDS011;38243;53.212;6.574;2022-12-18T10:10:53;11.88;;;8.18;;
52294;SDS011;38243;53.212;6.574;2022-12-18T10:13:18;12.52;;;8.75;;
52294;SDS011;38243;53.212;6.574;2022-12-18T10:16:47;11.40;;;8.10;;
52294;SDS011;38243;53.212;6.574;2022-12-18T10:21:35;9.47;;;8.10;;
52294;SDS011;38243;53.212;6.574;2022-12-18T10:26:44;8.57;;;7.45;;
52294;SDS011;38243;53.212;6.574;2022-12-18T10:29:17;9.33;;;7.43;;
52294;SDS011;38243;53.212;6.574;2022-12-18T10:31:44;8.95;;;7.50;;
52294;SDS011;38243;53.212;6.574;2022-12-18T10:34:10;10.60;;;7.75;;
52294;SDS011;38243;53.212;6.574;2022-12-18T10:36:37;8.00;;;7.00;;
52294;SDS011;38243;53.212;6.574;2022-12-18T10:39:13;7.95;;;6.90;;
52294;SDS011;38243;53.212;6.574;2022-12-18T10:41:41;8.82;;;7.32;;
52294;SDS011;38243;53.212;6.574;2022-12-18T10:44:24;8.70;;;7.00;;
52294;SDS011;38243;53.212;6.574;2022-12-18T10:46:55;8.00;;;6.30;;
52294;SDS011;38243;53.212;6.574;2022-12-18T10:49:30;9.07;;;6.80;;
52294;SDS011;38243;53.212;6.574;2022-12-18T10:54:54;8.18;;;6.90;;
52294;SDS011;38243;53.212;6.574;2022-12-18T10:57:39;8.35;;;6.82;;
52294;SDS011;38243;53.212;6.574;2022-12-18T11:02:55;7.65;;;6.35;;
52294;SDS011;38243;53.212;6.574;2022-12-18T11:07:55;7.20;;;6.10;;
52294;SDS011;38243;53.212;6.574;2022-12-18T11:10:27;8.90;;;6.10;;
52294;SDS011;38243;53.212;6.574;2022-12-18T11:15:49;7.88;;;5.55;;
52294;SDS011;38243;53.212;6.574;2022-12-18T11:21:09;8.90;;;5.43;;
52294;SDS011;38243;53.212;6.574;2022-12-18T11:23:37;6.70;;;5.55;;
52294;SDS011;38243;53.212;6.574;2022-12-18T11:26:12;7.00;;;5.18;;
52294;SDS011;38243;53.212;6.574;2022-12-18T11:28:42;9.03;;;5.10;;
52294;SDS011;38243;53.212;6.574;2022-12-18T11:31:18;7.27;;;5.03;;
52294;SDS011;38243;53.212;6.574;2022-12-18T11:33:51;6.55;;;5.18;;
52294;SDS011;38243;53.212;6.574;2022-12-18T11:36:52;7.33;;;5.30;;
52294;SDS011;38243;53.212;6.574;2022-12-18T11:41:47;8.75;;;4.80;;
52294;SDS011;38243;53.212;6.574;2022-12-18T11:50:02;9.68;;;4.82;;
52294;SDS011;38243;53.212;6.574;2022-12-18T11:52:39;8.38;;;4.47;;
52294;SDS011;38243;53.212;6.574;2022-12-18T11:55:13;6.53;;;4.35;;
52294;SDS011;38243;53.212;6.574;2022-12-18T12:00:39;8.00;;;4.70;;
52294;SDS011;38243;53.212;6.574;2022-12-18T12:11:43;7.40;;;4.50;;
52294;SDS011;38243;53.212;6.574;2022-12-18T12:17:21;7.88;;;4.50;;
52294;SDS011;38243;53.212;6.574;2022-12-18T12:20:11;5.25;;;3.95;;
52294;SDS011;38243;53.212;6.574;2022-12-18T12:35:03;5.43;;;4.00;;
52294;SDS011;38243;53.212;6.574;2022-12-18T12:38:04;5.35;;;3.90;;
52294;SDS011;38243;53.212;6.574;2022-12-18T12:40:31;4.90;;;3.83;;
52294;SDS011;38243;53.212;6.574;2022-12-18T12:51:07;4.75;;;3.45;;
52294;SDS011;38243;53.212;6.574;2022-12-18T12:53:37;3.85;;;3.42;;
52294;SDS011;38243;53.212;6.574;2022-12-18T12:56:04;5.18;;;3.20;;
52294;SDS011;38243;53.212;6.574;2022-12-18T13:01:28;6.43;;;3.40;;
52294;SDS011;38243;53.212;6.574;2022-12-18T13:04:05;7.03;;;3.30;;
52294;SDS011;38243;53.212;6.574;2022-12-18T13:07:10;5.45;;;3.38;;
52294;SDS011;38243;53.212;6.574;2022-12-18T13:15:45;21.33;;;5.07;;
52294;SDS011;38243;53.212;6.574;2022-12-18T13:18:17;18.35;;;5.15;;
52294;SDS011;38243;53.212;6.574;2022-12-18T13:21:01;18.08;;;5.72;;
52294;SDS011;38243;53.212;6.574;2022-12-18T13:23:43;23.67;;;6.70;;
52294;SDS011;38243;53.212;6.574;2022-12-18T13:31:12;25.13;;;6.47;;
52294;SDS011;38243;53.212;6.574;2022-12-18T13:33:40;18.63;;;5.43;;
52294;SDS011;38243;53.212;6.574;2022-12-18T13:38:38;20.35;;;5.47;;
52294;SDS011;38243;53.212;6.574;2022-12-18T13:43:43;14.27;;;5.43;;
52294;SDS011;38243;53.212;6.574;2022-12-18T13:46:30;19.95;;;6.30;;
52294;SDS011;38243;53.212;6.574;2022-12-18T13:51:38;16.60;;;5.63;;
52294;SDS011;38243;53.212;6.574;2022-12-18T13:57:00;14.30;;;5.28;;
52294;SDS011;38243;53.212;6.574;2022-12-18T13:59:33;13.80;;;5.00;;
52294;SDS011;38243;53.212;6.574;2022-12-18T14:02:16;14.32;;;4.63;;
52294;SDS011;38243;53.212;6.574;2022-12-18T14:04:46;14.00;;;4.80;;
52294;SDS011;38243;53.212;6.574;2022-12-18T14:07:13;11.07;;;4.30;;
52294;SDS011;38243;53.212;6.574;2022-12-18T14:09:40;13.98;;;4.97;;
52294;SDS011;38243;53.212;6.574;2022-12-18T14:12:21;11.77;;;4.72;;
52294;SDS011;38243;53.212;6.574;2022-12-18T14:15:50;9.43;;;4.50;;
52294;SDS011;38243;53.212;6.574;2022-12-18T14:18:15;11.40;;;4.87;;
52294;SDS011;38243;53.212;6.574;2022-12-18T14:20:55;9.25;;;4.63;;
52294;SDS011;38243;53.212;6.574;2022-12-18T14:23:39;15.10;;;4.45;;
52294;SDS011;38243;53.212;6.574;2022-12-18T14:29:18;12.00;;;4.30;;
52294;SDS011;38243;53.212;6.574;2022-12-18T14:31:46;11.50;;;4.50;;
52294;SDS011;38243;53.212;6.574;2022-12-18T14:34:35;9.97;;;4.37;;
52294;SDS011;38243;53.212;6.574;2022-12-18T14:37:01;13.38;;;4.53;;
52294;SDS011;38243;53.212;6.574;2022-12-18T14:39:27;10.15;;;4.20;;
52294;SDS011;38243;53.212;6.574;2022-12-18T14:41:52;9.30;;;3.90;;
52294;SDS011;38243;53.212;6.574;2022-12-18T14:44:18;9.00;;;3.60;;
52294;SDS011;38243;53.212;6.574;2022-12-18T14:46:46;8.70;;;3.92;;
52294;SDS011;38243;53.212;6.574;2022-12-18T14:49:18;10.40;;;4.10;;
52294;SDS011;38243;53.212;6.574;2022-12-18T14:51:57;7.80;;;4.20;;
52294;SDS011;38243;53.212;6.574;2022-12-18T14:54:25;7.88;;;4.05;;
52294;SDS011;38243;53.212;6.574;2022-12-18T14:57:05;8.50;;;3.70;;
52294;SDS011;38243;53.212;6.574;2022-12-18T14:59:44;6.55;;;4.07;;
52294;SDS011;38243;53.212;6.574;2022-12-18T15:04:59;6.22;;;3.42;;
52294;SDS011;38243;53.212;6.574;2022-12-18T15:07:39;6.47;;;3.60;;
52294;SDS011;38243;53.212;6.574;2022-12-18T15:10:14;7.28;;;3.58;;
52294;SDS011;38243;53.212;6.574;2022-12-18T15:18:02;6.70;;;3.55;;
52294;SDS011;38243;53.212;6.574;2022-12-18T15:20:32;5.88;;;3.60;;
52294;SDS011;38243;53.212;6.574;2022-12-18T15:23:50;7.18;;;3.80;;
52294;SDS011;38243;53.212;6.574;2022-12-18T15:26:00;6.10;;;3.80;;
52294;SDS011;38243;53.212;6.574;2022-12-18T15:28:35;8.30;;;3.75;;
52294;SDS011;38243;53.212;6.574;2022-12-18T15:33:41;9.32;;;3.50;;
52294;SDS011;38243;53.212;6.574;2022-12-18T15:36:15;6.93;;;3.50;;
52294;SDS011;38243;53.212;6.574;2022-12-18T15:38:45;7.32;;;3.30;;
52294;SDS011;38243;53.212;6.574;2022-12-18T15:41:16;8.77;;;3.40;;
52294;SDS011;38243;53.212;6.574;2022-12-18T15:43:44;4.90;;;3.53;;
52294;SDS011;38243;53.212;6.574;2022-12-18T15:46:12;7.05;;;3.28;;
52294;SDS011;38243;53.212;6.574;2022-12-18T15:48:41;5.75;;;3.28;;
52294;SDS011;38243;53.212;6.574;2022-12-18T15:51:11;6.97;;;3.70;;
52294;SDS011;38243;53.212;6.574;2022-12-18T15:53:39;10.73;;;3.40;;
52294;SDS011;38243;53.212;6.574;2022-12-18T15:56:07;7.77;;;3.30;;
52294;SDS011;38243;53.212;6.574;2022-12-18T15:58:54;6.03;;;3.25;;
52294;SDS011;38243;53.212;6.574;2022-12-18T16:01:20;6.17;;;3.37;;
52294;SDS011;38243;53.212;6.574;2022-12-18T16:03:47;4.93;;;3.17;;
52294;SDS011;38243;53.212;6.574;2022-12-18T16:06:13;6.38;;;3.50;;
52294;SDS011;38243;53.212;6.574;2022-12-18T16:08:39;6.73;;;3.80;;
52294;SDS011;38243;53.212;6.574;2022-12-18T16:11:04;42.92;;;6.70;;
52294;SDS011;38243;53.212;6.574;2022-12-18T16:13:30;29.00;;;6.32;;
52294;SDS011;38243;53.212;6.574;2022-12-18T16:15:56;26.97;;;6.30;;
52294;SDS011;38243;53.212;6.574;2022-12-18T16:18:22;28.63;;;6.10;;
52294;SDS011;38243;53.212;6.574;2022-12-18T16:20:48;31.25;;;6.65;;
52294;SDS011;38243;53.212;6.574;2022-12-18T16:23:14;23.83;;;5.70;;
52294;SDS011;38243;53.212;6.574;2022-12-18T16:25:39;21.77;;;5.53;;
52294;SDS011;38243;53.212;6.574;2022-12-18T16:28:05;19.85;;;5.47;;
52294;SDS011;38243;53.212;6.574;2022-12-18T16:30:31;21.57;;;5.63;;
52294;SDS011;38243;53.212;6.574;2022-12-18T16:32:57;19.47;;;5.80;;
52294;SDS011;38243;53.212;6.574;2022-12-18T16:35:23;21.83;;;5.73;;
52294;SDS011;38243;53.212;6.574;2022-12-18T16:37:50;17.87;;;5.70;;
52294;SDS011;38243;53.212;6.574;2022-12-18T16:40:16;12.77;;;5.10;;
52294;SDS011;38243;53.212;6.574;2022-12-18T16:42:43;19.10;;;5.33;;
52294;SDS011;38243;53.212;6.574;2022-12-18T16:45:11;14.32;;;5.32;;
52294;SDS011;38243;53.212;6.574;2022-12-18T16:47:38;19.83;;;5.18;;
52294;SDS011;38243;53.212;6.574;2022-12-18T16:50:05;15.93;;;5.78;;
52294;SDS011;38243;53.212;6.574;2022-12-18T16:52:32;14.73;;;5.50;;
52294;SDS011;38243;53.212;6.574;2022-12-18T16:54:58;15.10;;;5.65;;
52294;SDS011;38243;53.212;6.574;2022-12-18T16:57:24;14.13;;;5.40;;
52294;SDS011;38243;53.212;6.574;2022-12-18T16:59:50;15.87;;;5.80;;
52294;SDS011;38243;53.212;6.574;2022-12-18T17:02:22;15.95;;;5.80;;